Time;durP1;ratioP1;P1;durP2;ratioP2;P2;SDS_P1;SDS_P2;PMS_P1;PMS_P2;Temp;Humidity;BMP_temperature;BMP_pressure;BME280_temperature;BME280_humidity;BME280_pressure;Samples;Min_cycle;Max_cycle;Signal;HPM_P1;HPM_P2
2023/08/12 00:00:19;;;;;;;;;;;21.80;94.70;;;;;;4973227;28;20022;-84
2023/08/12 00:02:45;;;;;;;0.20;0.20;;;21.80;94.90;;;;;;4969258;28;19914;-83
2023/08/12 00:05:11;;;;;;;;;;;21.90;94.60;;;;;;4965630;28;20562;-82
2023/08/12 00:07:38;;;;;;;0.10;0.10;;;21.90;94.60;;;;;;4965185;28;19917;-83
2023/08/12 00:10:05;;;;;;;0.05;0.05;;;21.90;94.70;;;;;;4959194;28;20049;-84
2023/08/12 00:12:35;;;;;;;0.60;0.60;;;21.90;94.90;;;;;;4968542;28;20038;-85
2023/08/12 00:15:01;;;;;;;0.52;0.32;;;21.80;95.20;;;;;;4968920;28;20100;-83
2023/08/12 00:17:27;;;;;;;;;;;21.80;95.60;;;;;;4967543;28;20858;-84
2023/08/12 00:19:53;;;;;;;0.30;0.30;;;21.70;95.90;;;;;;4966298;28;19918;-84
2023/08/12 00:22:18;;;;;;;0.27;0.27;;;21.60;96.30;;;;;;4964717;28;20325;-85
2023/08/12 00:24:44;;;;;;;0.30;0.30;;;21.60;96.50;;;;;;4962055;28;20277;-84
2023/08/12 00:27:10;;;;;;;0.00;0.00;;;21.50;96.60;;;;;;4963007;28;20034;-83
2023/08/12 00:29:36;;;;;;;0.30;0.30;;;21.50;96.80;;;;;;4963197;28;20046;-83
2023/08/12 00:32:02;;;;;;;0.10;0.10;;;21.40;96.80;;;;;;4964463;28;20034;-84
2023/08/12 00:34:28;;;;;;;1.38;1.27;;;21.50;96.30;;;;;;4963225;28;20836;-84
2023/08/12 00:36:54;;;;;;;0.53;0.40;;;21.40;95.80;;;;;;4964713;28;20161;-85
2023/08/12 00:39:19;;;;;;;0.50;0.43;;;21.40;95.80;;;;;;4962832;28;20065;-86
2023/08/12 00:41:45;;;;;;;0.40;0.27;;;21.40;96.00;;;;;;4964418;28;20821;-85
2023/08/12 00:44:11;;;;;;;0.40;0.40;;;21.40;96.50;;;;;;4964749;28;20031;-84
2023/08/12 00:46:39;;;;;;;0.65;0.65;;;21.40;96.60;;;;;;4966327;28;20073;-84
2023/08/12 00:49:05;;;;;;;0.10;0.10;;;21.30;96.80;;;;;;4967174;28;20047;-85
2023/08/12 00:51:31;;;;;;;0.10;0.10;;;21.30;96.80;;;;;;4967572;28;20019;-84
2023/08/12 00:54:05;;;;;;;0.30;0.30;;;21.20;97.30;;;;;;4966637;28;20102;-84
2023/08/12 00:56:31;;;;;;;0.20;0.20;;;21.30;97.30;;;;;;4960089;28;20031;-84
2023/08/12 00:58:59;;;;;;;0.40;0.40;;;21.40;97.10;;;;;;4968216;28;20034;-85
2023/08/12 01:01:25;;;;;;;0.85;0.85;;;21.30;96.90;;;;;;4965736;28;20540;-83
2023/08/12 01:03:52;;;;;;;0.83;0.57;;;21.30;96.80;;;;;;4974262;28;20037;-86
2023/08/12 01:06:17;;;;;;;;;;;21.40;96.90;;;;;;4973030;28;20093;-88
2023/08/12 01:08:44;;;;;;;0.55;0.55;;;21.30;97.40;;;;;;4971851;28;19932;-86
2023/08/12 01:11:16;;;;;;;0.10;0.10;;;21.30;97.70;;;;;;4968586;28;20039;-84
2023/08/12 01:14:12;;;;;;;1.75;0.95;;;21.20;97.90;;;;;;4968284;28;20447;-82
2023/08/12 01:16:43;;;;;;;1.02;0.75;;;21.10;98.20;;;;;;4962961;28;20034;-83
2023/08/12 01:19:18;;;;;;;0.50;0.50;;;21.10;98.30;;;;;;4973232;28;20039;-84
2023/08/12 01:21:45;;;;;;;0.10;0.10;;;21.20;98.20;;;;;;4979379;28;20066;-84
2023/08/12 01:24:11;;;;;;;0.30;0.30;;;21.10;98.40;;;;;;4964227;28;20031;-83
2023/08/12 01:26:37;;;;;;;0.43;0.43;;;21.00;98.80;;;;;;4981149;28;20426;-84
2023/08/12 01:29:03;;;;;;;0.20;0.20;;;21.00;98.90;;;;;;4975184;28;20265;-86
2023/08/12 01:31:46;;;;;;;0.60;0.43;;;21.00;99.10;;;;;;4967832;28;20041;-83
2023/08/12 01:34:25;;;;;;;0.40;0.40;;;21.00;99.20;;;;;;4970802;28;20042;-83
2023/08/12 01:36:55;;;;;;;0.45;0.45;;;20.90;99.10;;;;;;4978210;28;20103;-84
2023/08/12 01:39:23;;;;;;;0.55;0.55;;;20.90;99.50;;;;;;4971819;28;20398;-84
2023/08/12 01:41:51;;;;;;;0.93;0.20;;;20.80;99.90;;;;;;4976432;28;20035;-86
2023/08/12 01:44:17;;;;;;;0.85;0.63;;;20.80;99.90;;;;;;4975966;28;20069;-85
2023/08/12 01:46:44;;;;;;;0.05;0.05;;;20.80;99.90;;;;;;4976015;28;20856;-86
2023/08/12 01:49:09;;;;;;;0.20;0.20;;;20.80;99.90;;;;;;4973932;28;20038;-84
2023/08/12 01:51:35;;;;;;;0.33;0.33;;;20.70;99.90;;;;;;4975870;28;20084;-83
2023/08/12 01:54:01;;;;;;;0.10;0.10;;;20.70;99.90;;;;;;4973244;28;20027;-84
2023/08/12 01:56:27;;;;;;;0.80;0.53;;;20.70;99.90;;;;;;4971343;28;20053;-82
2023/08/12 01:58:53;;;;;;;;;;;20.60;99.90;;;;;;4971820;28;20031;-85
2023/08/12 02:01:19;;;;;;;0.03;0.03;;;20.60;99.90;;;;;;4969286;28;19972;-83
2023/08/12 02:03:44;;;;;;;0.00;0.00;;;20.60;99.90;;;;;;4970209;28;20273;-83
2023/08/12 02:06:10;;;;;;;0.27;0.27;;;20.60;99.90;;;;;;4969492;28;20034;-83
2023/08/12 02:08:36;;;;;;;0.53;0.53;;;20.60;99.90;;;;;;4977511;28;20061;-84
2023/08/12 02:11:02;;;;;;;0.08;0.08;;;20.60;99.90;;;;;;4971526;28;20038;-82
2023/08/12 02:13:28;;;;;;;0.10;0.10;;;20.60;99.90;;;;;;4965348;28;20037;-82
2023/08/12 02:15:53;;;;;;;0.60;0.60;;;20.60;99.90;;;;;;4971554;28;20506;-82
2023/08/12 02:18:19;;;;;;;0.20;0.20;;;20.60;99.90;;;;;;4975784;28;20089;-85
2023/08/12 02:20:48;;;;;;;0.67;0.67;;;20.50;99.90;;;;;;4967578;28;20070;-81
2023/08/12 02:23:14;;;;;;;0.15;0.15;;;20.50;99.90;;;;;;4975763;28;20110;-83
2023/08/12 02:25:39;;;;;;;0.10;0.10;;;20.50;99.90;;;;;;4974969;28;20130;-83
2023/08/12 02:28:05;;;;;;;1.70;0.80;;;20.50;99.90;;;;;;4976848;28;20026;-84
2023/08/12 02:30:31;;;;;;;0.00;0.00;;;20.40;99.90;;;;;;4974362;28;20442;-83
2023/08/12 02:32:56;;;;;;;0.80;0.80;;;20.40;99.90;;;;;;4970026;28;20076;-84
2023/08/12 02:35:23;;;;;;;0.30;0.30;;;20.40;99.90;;;;;;4969533;28;20527;-85
2023/08/12 02:37:49;;;;;;;0.33;0.33;;;20.40;99.90;;;;;;4970168;28;20038;-84
2023/08/12 02:40:15;;;;;;;0.50;0.50;;;20.40;99.90;;;;;;4970111;28;20398;-83
2023/08/12 02:42:40;;;;;;;0.10;0.10;;;20.40;99.90;;;;;;4968006;28;20533;-83
2023/08/12 02:45:06;;;;;;;0.30;0.30;;;20.40;99.90;;;;;;4971503;28;20041;-84
2023/08/12 02:47:32;;;;;;;0.10;0.10;;;20.30;99.90;;;;;;4966809;28;20458;-84
2023/08/12 02:49:58;;;;;;;0.60;0.33;;;20.30;99.90;;;;;;4966785;28;20120;-84
2023/08/12 02:52:23;;;;;;;0.40;0.40;;;20.30;99.90;;;;;;4966957;28;20066;-84
2023/08/12 02:54:49;;;;;;;0.63;0.40;;;20.20;99.90;;;;;;4965641;28;20031;-83
2023/08/12 02:57:15;;;;;;;1.03;0.93;;;20.20;99.90;;;;;;4965815;28;20039;-84
2023/08/12 02:59:41;;;;;;;0.30;0.30;;;20.20;99.90;;;;;;4971098;28;20045;-85
2023/08/12 03:02:06;;;;;;;0.10;0.10;;;20.10;99.90;;;;;;4971102;28;20031;-84
2023/08/12 03:04:32;;;;;;;0.30;0.30;;;20.10;99.90;;;;;;4970822;28;20475;-86
2023/08/12 03:06:58;;;;;;;0.47;0.47;;;20.10;99.90;;;;;;4971146;28;20069;-83
2023/08/12 03:09:23;;;;;;;0.63;0.63;;;20.10;99.90;;;;;;4970661;28;20033;-87
2023/08/12 03:11:49;;;;;;;0.40;0.40;;;20.00;99.90;;;;;;4972471;28;20113;-84
2023/08/12 03:14:15;;;;;;;2.65;0.32;;;20.00;99.90;;;;;;4971674;28;20058;-83
2023/08/12 03:16:41;;;;;;;0.10;0.10;;;20.00;99.90;;;;;;4973122;28;20034;-84
2023/08/12 03:19:06;;;;;;;0.00;0.00;;;19.90;99.90;;;;;;4972812;28;20031;-84
2023/08/12 03:21:32;;;;;;;0.83;0.53;;;19.90;99.90;;;;;;4973133;28;20033;-86
2023/08/12 03:23:58;;;;;;;4.27;0.77;;;19.80;99.90;;;;;;4972957;28;20026;-90
2023/08/12 03:26:23;;;;;;;0.00;0.00;;;19.90;99.90;;;;;;4972234;28;20051;-85
2023/08/12 03:28:49;;;;;;;0.10;0.10;;;19.90;99.90;;;;;;4972750;28;20086;-84
2023/08/12 03:31:15;;;;;;;1.60;0.50;;;19.90;99.90;;;;;;4973023;28;20038;-84
2023/08/12 03:33:40;;;;;;;0.50;0.50;;;19.90;99.90;;;;;;4986859;28;20026;-83
2023/08/12 03:36:06;;;;;;;0.63;0.63;;;19.80;99.90;;;;;;4972029;28;20045;-84
2023/08/12 03:38:32;;;;;;;1.33;0.83;;;19.80;99.90;;;;;;4972327;28;20030;-85
2023/08/12 03:40:58;;;;;;;1.10;1.03;;;19.80;99.90;;;;;;4970829;28;20035;-84
2023/08/12 03:43:23;;;;;;;0.00;0.00;;;19.80;99.90;;;;;;4972231;28;20101;-85
2023/08/12 03:45:49;;;;;;;0.27;0.27;;;19.80;99.90;;;;;;4970626;28;20078;-86
2023/08/12 03:48:15;;;;;;;0.33;0.33;;;19.80;99.90;;;;;;4971024;28;20031;-84
2023/08/12 03:50:42;;;;;;;0.20;0.20;;;19.90;99.90;;;;;;4971862;28;20495;-83
2023/08/12 03:53:08;;;;;;;1.30;0.85;;;20.10;99.90;;;;;;4969776;28;20034;-83
2023/08/12 03:55:34;;;;;;;0.45;0.45;;;20.10;99.90;;;;;;4971138;28;20062;-84
2023/08/12 03:58:01;;;;;;;0.30;0.30;;;20.10;99.90;;;;;;4970826;28;20494;-86
2023/08/12 04:00:27;;;;;;;0.10;0.10;;;20.20;99.90;;;;;;4971364;28;20387;-84
2023/08/12 04:02:52;;;;;;;0.20;0.20;;;20.20;99.90;;;;;;4971555;28;20033;-82
2023/08/12 04:05:18;;;;;;;1.03;0.80;;;20.10;99.90;;;;;;4970381;28;20401;-84
2023/08/12 04:07:44;;;;;;;0.20;0.20;;;20.10;99.90;;;;;;4968934;28;20118;-82
2023/08/12 04:10:10;;;;;;;0.40;0.40;;;20.00;99.90;;;;;;4970004;28;20770;-82
2023/08/12 04:12:36;;;;;;;0.30;0.30;;;20.00;99.90;;;;;;4968155;28;20031;-81
2023/08/12 04:15:05;;;;;;;0.20;0.20;;;19.90;99.90;;;;;;4968574;28;20038;-81
2023/08/12 04:17:31;;;;;;;1.88;1.55;;;19.80;99.90;;;;;;4968134;28;20027;-85
2023/08/12 04:19:57;;;;;;;0.30;0.30;;;19.80;99.90;;;;;;4968495;28;20451;-84
2023/08/12 04:22:23;;;;;;;0.10;0.10;;;19.70;99.90;;;;;;4970005;28;20045;-87
2023/08/12 04:24:49;;;;;;;0.07;0.07;;;19.70;99.90;;;;;;4968913;28;20058;-82
2023/08/12 04:27:16;;;;;;;0.40;0.40;;;19.60;99.90;;;;;;4970478;28;20042;-83
2023/08/12 04:29:42;;;;;;;0.00;0.00;;;19.60;99.90;;;;;;4969234;28;20027;-87
2023/08/12 04:32:08;;;;;;;0.65;0.63;;;19.70;99.90;;;;;;4966187;28;20118;-82
2023/08/12 04:34:33;;;;;;;0.67;0.67;;;19.70;99.90;;;;;;4966885;28;20046;-86
2023/08/12 04:36:59;;;;;;;0.00;0.00;;;19.70;99.90;;;;;;4967734;28;20553;-82
2023/08/12 04:39:25;;;;;;;0.00;0.00;;;19.70;99.90;;;;;;4969637;28;20570;-82
2023/08/12 04:41:51;;;;;;;1.70;1.20;;;19.60;99.90;;;;;;4968847;28;20027;-82
2023/08/12 04:44:16;;;;;;;0.23;0.23;;;19.70;99.90;;;;;;4976465;28;20337;-81
2023/08/12 04:46:42;;;;;;;0.10;0.10;;;19.60;99.90;;;;;;4967341;28;20058;-83
2023/08/12 04:49:08;;;;;;;0.00;0.00;;;19.50;99.90;;;;;;4967349;28;20037;-85
2023/08/12 04:51:34;;;;;;;0.30;0.30;;;19.50;99.90;;;;;;4967620;28;20108;-82
2023/08/12 04:54:01;;;;;;;0.40;0.23;;;19.50;99.90;;;;;;4968204;28;20027;-82
2023/08/12 04:56:28;;;;;;;0.32;0.32;;;19.50;99.90;;;;;;4955813;28;20279;-84
2023/08/12 04:58:55;;;;;;;1.08;1.00;;;19.50;99.90;;;;;;4969610;28;20061;-82
2023/08/12 05:01:21;;;;;;;0.60;0.43;;;19.60;99.90;;;;;;4971025;28;20106;-81
2023/08/12 05:03:47;;;;;;;0.17;0.17;;;19.60;99.90;;;;;;4971086;28;20109;-81
2023/08/12 05:06:13;;;;;;;0.10;0.10;;;19.70;99.90;;;;;;4970338;28;20118;-81
2023/08/12 05:08:38;;;;;;;0.87;0.87;;;19.80;99.90;;;;;;4971406;28;20034;-85
2023/08/12 05:11:04;;;;;;;0.30;0.30;;;20.00;99.90;;;;;;4968171;28;20114;-84
2023/08/12 05:13:30;;;;;;;0.30;0.30;;;20.20;99.90;;;;;;4971031;28;20511;-84
2023/08/12 05:15:56;;;;;;;0.40;0.40;;;20.20;99.90;;;;;;4970273;28;20031;-83
2023/08/12 05:18:26;;;;;;;4.53;0.52;;;20.10;99.90;;;;;;4969652;28;20482;-80
2023/08/12 05:20:52;;;;;;;2.35;0.93;;;20.10;99.90;;;;;;4970406;28;20512;-80
2023/08/12 05:23:20;;;;;;;0.17;0.17;;;20.20;99.90;;;;;;4985903;28;20022;-83
2023/08/12 05:25:46;;;;;;;0.73;0.70;;;20.10;99.90;;;;;;4968604;28;20054;-79
2023/08/12 05:28:12;;;;;;;0.60;0.60;;;20.20;99.90;;;;;;4991562;28;20033;-81
2023/08/12 05:30:38;;;;;;;0.27;0.27;;;20.20;99.90;;;;;;4999290;28;20034;-82
2023/08/12 05:33:04;;;;;;;1.35;0.68;;;20.50;99.90;;;;;;4967337;28;20023;-81
2023/08/12 05:35:34;;;;;;;0.32;0.32;;;20.20;99.90;;;;;;4963635;28;20035;-81
2023/08/12 05:38:00;;;;;;;0.30;0.30;;;20.30;99.90;;;;;;4965948;28;20080;-81
2023/08/12 05:40:26;;;;;;;0.60;0.60;;;20.40;99.90;;;;;;4969867;28;20041;-81
2023/08/12 05:42:52;;;;;;;0.28;0.20;;;21.10;99.90;;;;;;4969994;28;20489;-80
2023/08/12 05:45:17;;;;;;;0.33;0.33;;;22.60;95.40;;;;;;4969822;28;20042;-83
2023/08/12 05:47:43;;;;;;;0.43;0.27;;;23.00;93.20;;;;;;4969517;28;20034;-89
2023/08/12 05:50:09;;;;;;;0.50;0.50;;;22.60;92.60;;;;;;4970775;28;20041;-81
2023/08/12 05:52:35;;;;;;;0.10;0.10;;;22.10;94.80;;;;;;4969920;28;20530;-81
2023/08/12 05:55:00;;;;;;;0.13;0.13;;;23.00;93.10;;;;;;4969238;28;20274;-81
2023/08/12 05:57:26;;;;;;;0.13;0.13;;;23.20;91.60;;;;;;4968599;28;20030;-84
2023/08/12 05:59:52;;;;;;;1.25;1.15;;;23.00;92.10;;;;;;4968194;28;20290;-84
2023/08/12 06:02:18;;;;;;;0.47;0.47;;;23.20;91.50;;;;;;4968185;28;20038;-83
2023/08/12 06:04:44;;;;;;;0.30;0.30;;;23.10;90.80;;;;;;4970062;28;20058;-81
2023/08/12 06:07:10;;;;;;;0.00;0.00;;;21.80;93.70;;;;;;4967652;28;20039;-81
2023/08/12 06:09:35;;;;;;;2.28;1.70;;;21.30;95.80;;;;;;4968582;28;20106;-78
2023/08/12 06:12:01;;;;;;;0.20;0.20;;;21.50;95.80;;;;;;4969566;28;20023;-81
2023/08/12 06:14:28;;;;;;;0.57;0.57;;;21.70;94.80;;;;;;4977212;28;20038;-80
2023/08/12 06:16:53;;;;;;;0.80;0.45;;;21.40;95.80;;;;;;4968624;28;20089;-86
2023/08/12 06:19:19;;;;;;;0.00;0.00;;;21.40;95.90;;;;;;4967759;28;20122;-78
2023/08/12 06:21:45;;;;;;;0.20;0.20;;;21.40;95.90;;;;;;4967883;28;20349;-79
2023/08/12 06:24:10;;;;;;;0.23;0.23;;;21.70;95.50;;;;;;4975694;28;20034;-77
2023/08/12 06:26:36;;;;;;;0.00;0.00;;;21.80;95.10;;;;;;4970320;28;20490;-79
2023/08/12 06:29:02;;;;;;;0.13;0.07;;;21.90;94.80;;;;;;4970626;28;20457;-82
2023/08/12 06:31:28;;;;;;;0.30;0.30;;;22.70;93.30;;;;;;4970371;28;20022;-82
2023/08/12 06:33:53;;;;;;;0.37;0.10;;;23.30;91.20;;;;;;4967368;28;20118;-85
2023/08/12 06:36:19;;;;;;;0.33;0.33;;;23.20;91.10;;;;;;4969114;28;20475;-81
2023/08/12 06:38:45;;;;;;;0.20;0.13;;;22.60;92.40;;;;;;4966398;28;20114;-80
2023/08/12 06:41:10;;;;;;;0.10;0.10;;;22.40;93.50;;;;;;4968421;28;20030;-76
2023/08/12 06:43:36;;;;;;;0.30;0.30;;;22.50;93.20;;;;;;4970689;28;20042;-79
2023/08/12 06:46:02;;;;;;;0.32;0.32;;;23.10;92.90;;;;;;4969901;28;20031;-78
2023/08/12 06:48:28;;;;;;;0.40;0.40;;;24.10;90.90;;;;;;4973429;28;20026;-80
2023/08/12 06:50:57;;;;;;;0.65;0.65;;;23.30;91.40;;;;;;4975873;28;20781;-82
2023/08/12 06:53:28;;;;;;;0.20;0.20;;;22.70;93.00;;;;;;4971388;28;20411;-88
2023/08/12 06:55:54;;;;;;;1.17;0.30;;;22.20;94.50;;;;;;4985879;28;20040;-81
2023/08/12 06:58:21;;;;;;;0.08;0.03;;;22.00;95.50;;;;;;4969637;28;20550;-81
2023/08/12 07:00:46;;;;;;;0.20;0.10;;;21.90;96.00;;;;;;4969332;28;20035;-80
2023/08/12 07:03:12;;;;;;;0.30;0.30;;;21.70;96.40;;;;;;4966030;28;20102;-77
2023/08/12 07:05:38;;;;;;;0.20;0.20;;;21.70;96.50;;;;;;4961390;28;20074;-85
2023/08/12 07:08:04;;;;;;;0.63;0.63;;;21.70;96.80;;;;;;4973029;28;20035;-83
2023/08/12 07:10:29;;;;;;;0.00;0.00;;;21.90;96.60;;;;;;4984806;28;20125;-83
2023/08/12 07:12:55;;;;;;;1.80;0.53;;;21.90;96.40;;;;;;4971097;28;20615;-80
2023/08/12 07:15:21;;;;;;;0.00;0.00;;;22.10;96.10;;;;;;4967987;28;20045;-81
2023/08/12 07:17:46;;;;;;;0.00;0.00;;;22.30;95.90;;;;;;4981862;28;20053;-82
2023/08/12 07:20:12;;;;;;;0.40;0.40;;;22.40;95.40;;;;;;4966701;28;20390;-81
2023/08/12 07:22:38;;;;;;;0.87;0.43;;;22.50;95.40;;;;;;4967078;28;20081;-82
2023/08/12 07:25:03;;;;;;;0.10;0.10;;;22.60;95.00;;;;;;4967795;28;20467;-87
2023/08/12 07:27:29;;;;;;;0.00;0.00;;;22.70;94.70;;;;;;4967855;28;20023;-82
2023/08/12 07:29:55;;;;;;;0.20;0.20;;;22.70;94.20;;;;;;4968546;28;20082;-81
2023/08/12 07:32:21;;;;;;;0.10;0.10;;;22.90;94.10;;;;;;4967449;28;20057;-82
2023/08/12 07:34:47;;;;;;;0.30;0.30;;;23.00;94.00;;;;;;4968490;28;20035;-81
2023/08/12 07:37:12;;;;;;;0.00;0.00;;;23.40;93.10;;;;;;4966916;28;20494;-80
2023/08/12 07:39:38;;;;;;;0.10;0.10;;;23.60;92.30;;;;;;4967963;28;20926;-85
2023/08/12 07:42:04;;;;;;;0.00;0.00;;;24.00;91.60;;;;;;4967904;28;20044;-82
2023/08/12 07:44:30;;;;;;;0.15;0.15;;;24.60;90.10;;;;;;4968449;28;20114;-82
2023/08/12 07:46:56;;;;;;;0.30;0.30;;;28.60;77.00;;;;;;4967259;28;20034;-81
2023/08/12 07:49:22;;;;;;;0.07;0.07;;;30.60;69.00;;;;;;4959958;28;20110;-80
2023/08/12 07:51:48;;;;;;;0.10;0.10;;;28.00;74.40;;;;;;4966020;28;20281;-81
2023/08/12 07:54:13;;;;;;;0.00;0.00;;;26.10;80.10;;;;;;4966623;28;20022;-83
2023/08/12 07:56:39;;;;;;;0.00;0.00;;;24.80;85.10;;;;;;4967054;28;20038;-82
2023/08/12 07:59:05;;;;;;;0.90;0.32;;;26.00;84.10;;;;;;4966736;28;20034;-83
2023/08/12 08:01:30;;;;;;;1.65;0.60;;;29.00;75.10;;;;;;4965003;28;20045;-81
2023/08/12 08:03:56;;;;;;;0.00;0.00;;;32.20;65.70;;;;;;4966792;28;20093;-82
2023/08/12 08:06:23;;;;;;;;;;;32.20;63.10;;;;;;4967555;28;20395;-81
2023/08/12 08:08:49;;;;;;;0.63;0.45;;;32.60;62.20;;;;;;4969151;28;19909;-82
2023/08/12 08:11:14;;;;;;;;;;;33.50;58.80;;;;;;4967244;28;20372;-84
2023/08/12 08:13:40;;;;;;;0.00;0.00;;;35.20;56.90;;;;;;4965136;28;20373;-82
2023/08/12 08:16:06;;;;;;;0.10;0.10;;;35.50;56.90;;;;;;4967180;28;20031;-85
2023/08/12 08:18:32;;;;;;;0.08;0.08;;;36.00;55.70;;;;;;4966830;28;20399;-82
2023/08/12 08:20:57;;;;;;;0.00;0.00;;;36.80;53.60;;;;;;4963322;28;20698;-83
2023/08/12 08:23:23;;;;;;;0.10;0.10;;;36.90;52.60;;;;;;4965238;28;20041;-85
2023/08/12 08:25:49;;;;;;;0.00;0.00;;;37.10;51.70;;;;;;4964375;28;20055;-86
2023/08/12 08:28:14;;;;;;;0.00;0.00;;;37.50;50.50;;;;;;4967726;28;20023;-84
2023/08/12 08:30:40;;;;;;;0.28;0.28;;;37.20;51.00;;;;;;4966527;28;20041;-83
2023/08/12 08:33:06;;;;;;;0.10;0.10;;;35.20;52.80;;;;;;4964664;28;20026;-82
2023/08/12 08:35:31;;;;;;;0.00;0.00;;;36.40;51.90;;;;;;4966647;28;20023;-82
2023/08/12 08:37:57;;;;;;;1.00;0.30;;;36.40;51.10;;;;;;4965791;28;20042;-84
2023/08/12 08:40:23;;;;;;;0.00;0.00;;;37.10;50.90;;;;;;4966364;28;20035;-81
2023/08/12 08:42:53;;;;;;;0.00;0.00;;;38.30;48.50;;;;;;4965493;28;20027;-86
2023/08/12 08:45:20;;;;;;;0.10;0.00;;;37.60;47.70;;;;;;4964127;28;20031;-84
2023/08/12 08:47:48;;;;;;;0.00;0.00;;;36.60;48.70;;;;;;4965194;28;20027;-81
2023/08/12 08:50:15;;;;;;;0.75;0.63;;;33.60;53.20;;;;;;4966143;28;20077;-86
2023/08/12 08:52:43;;;;;;;0.00;0.00;;;33.70;56.50;;;;;;4965497;28;20038;-83
2023/08/12 08:55:09;;;;;;;0.00;0.00;;;37.50;50.10;;;;;;4958998;28;20566;-86
2023/08/12 08:57:37;;;;;;;0.00;0.00;;;37.10;50.80;;;;;;4965905;28;20137;-82
2023/08/12 09:00:07;;;;;;;0.05;0.05;;;38.30;46.50;;;;;;4964453;28;20130;-82
2023/08/12 09:02:33;;;;;;;0.08;0.08;;;38.70;45.50;;;;;;4966219;28;20274;-82
2023/08/12 09:05:01;;;;;;;0.03;0.03;;;40.30;43.40;;;;;;4966185;28;20031;-83
2023/08/12 09:07:29;;;;;;;0.00;0.00;;;41.10;41.30;;;;;;4964097;28;20031;-82
2023/08/12 09:09:55;;;;;;;0.20;0.20;;;41.10;39.40;;;;;;4967396;28;20054;-83
2023/08/12 09:12:22;;;;;;;0.10;0.10;;;40.70;41.40;;;;;;4964743;28;20030;-81
2023/08/12 09:14:48;;;;;;;0.15;0.10;;;39.10;41.60;;;;;;4965286;28;20604;-84
2023/08/12 09:17:14;;;;;;;0.00;0.00;;;40.00;43.10;;;;;;4965070;28;20019;-84
2023/08/12 09:19:40;;;;;;;0.20;0.10;;;39.50;43.30;;;;;;4965685;28;20410;-82
2023/08/12 09:22:11;;;;;;;7.28;1.15;;;40.20;42.30;;;;;;4965061;28;20023;-82
2023/08/12 09:24:36;;;;;;;0.47;0.35;;;39.80;43.90;;;;;;4964950;28;20157;-82
2023/08/12 09:27:02;;;;;;;0.10;0.10;;;38.20;44.40;;;;;;4964681;28;20113;-82
2023/08/12 09:29:33;;;;;;;0.10;0.10;;;39.60;45.90;;;;;;4965068;28;20146;-83
2023/08/12 09:32:26;;;;;;;0.00;0.00;;;39.70;44.50;;;;;;4963691;28;20023;-83
2023/08/12 09:34:54;;;;;;;0.00;0.00;;;39.50;42.70;;;;;;4965237;28;20595;-81
2023/08/12 09:37:20;;;;;;;0.20;0.20;;;40.40;41.80;;;;;;4965203;28;20070;-83
2023/08/12 09:39:48;;;;;;;0.17;0.17;;;40.40;42.90;;;;;;4964890;28;20035;-83
2023/08/12 09:42:14;;;;;;;0.03;0.03;;;40.00;42.20;;;;;;4964825;28;20031;-85
2023/08/12 09:44:40;;;;;;;0.08;0.08;;;40.70;42.80;;;;;;4965033;28;20170;-82
2023/08/12 09:47:08;;;;;;;0.00;0.00;;;40.70;42.50;;;;;;4964643;28;20019;-81
2023/08/12 09:49:35;;;;;;;0.22;0.22;;;40.70;41.10;;;;;;4970569;28;20030;-85
2023/08/12 09:52:02;;;;;;;0.00;0.00;;;40.70;41.20;;;;;;4965308;28;20030;-84
2023/08/12 09:54:28;;;;;;;0.40;0.40;;;41.30;42.00;;;;;;4964164;28;20125;-83
2023/08/12 09:56:58;;;;;;;0.00;0.00;;;40.60;40.00;;;;;;4968226;28;20264;-85
2023/08/12 09:59:27;;;;;;;0.00;0.00;;;40.70;40.00;;;;;;4968439;28;20038;-83
2023/08/12 10:01:53;;;;;;;0.20;0.10;;;40.60;40.10;;;;;;4968412;28;20391;-84
2023/08/12 10:04:22;;;;;;;0.00;0.00;;;40.30;41.70;;;;;;4968572;28;20034;-82
2023/08/12 10:06:49;;;;;;;0.00;0.00;;;41.20;41.20;;;;;;4967194;28;20039;-85
2023/08/12 10:09:16;;;;;;;0.08;0.08;;;41.10;40.20;;;;;;4968435;28;20054;-82
2023/08/12 10:11:45;;;;;;;1.00;0.55;;;41.00;39.40;;;;;;4968718;28;20023;-83
2023/08/12 10:14:12;;;;;;;0.03;0.03;;;41.20;39.50;;;;;;4968780;28;20038;-82
2023/08/12 10:16:39;;;;;;;0.10;0.10;;;41.00;37.60;;;;;;4968097;28;20022;-84
2023/08/12 10:19:06;;;;;;;0.00;0.00;;;40.70;38.80;;;;;;4968565;28;20125;-85
2023/08/12 10:21:32;;;;;;;0.00;0.00;;;40.60;38.70;;;;;;4966433;28;20041;-81
2023/08/12 10:23:58;;;;;;;0.00;0.00;;;39.80;39.40;;;;;;4968164;28;20037;-82
2023/08/12 10:26:27;;;;;;;9.30;0.68;;;40.00;38.60;;;;;;4967671;28;20047;-86
2023/08/12 10:28:54;;;;;;;0.05;0.05;;;38.70;41.10;;;;;;4969606;28;20126;-82
2023/08/12 10:31:21;;;;;;;0.47;0.47;;;38.80;40.40;;;;;;4968303;28;20034;-82
2023/08/12 10:33:49;;;;;;;0.10;0.00;;;37.60;40.10;;;;;;4968346;28;20034;-82
2023/08/12 10:36:18;;;;;;;1.88;0.77;;;36.90;41.40;;;;;;4968150;28;20026;-81
2023/08/12 10:38:44;;;;;;;0.28;0.22;;;35.00;41.50;;;;;;4968459;28;20023;-83
2023/08/12 10:41:17;;;;;;;;;;;35.10;45.30;;;;;;4968436;28;20039;-83
2023/08/12 10:43:49;;;;;;;0.10;0.10;;;34.30;45.60;;;;;;4968386;28;20445;-83
2023/08/12 10:46:32;;;;;;;0.45;0.25;;;34.10;45.80;;;;;;4966582;28;20174;-84
2023/08/12 10:49:06;;;;;;;0.00;0.00;;;34.10;46.20;;;;;;4967532;28;20518;-82
2023/08/12 10:51:51;;;;;;;0.60;0.47;;;34.00;47.30;;;;;;4967884;28;20038;-81
2023/08/12 10:54:29;;;;;;;0.35;0.25;;;33.60;46.00;;;;;;4963235;28;20031;-82
2023/08/12 10:57:14;;;;;;;0.00;0.00;;;33.70;47.60;;;;;;4967658;28;20121;-82
2023/08/12 10:59:46;;;;;;;0.70;0.60;;;33.30;46.90;;;;;;4967800;28;20079;-83
2023/08/12 11:02:30;;;;;;;0.28;0.28;;;32.70;45.00;;;;;;4967331;28;20026;-82
2023/08/12 11:05:07;;;;;;;0.00;0.00;;;32.50;48.20;;;;;;4962011;28;20027;-83
2023/08/12 11:07:45;;;;;;;0.10;0.10;;;33.00;49.70;;;;;;4966451;28;20113;-82
2023/08/12 11:10:21;;;;;;;0.10;0.10;;;32.60;49.30;;;;;;4967194;28;20084;-81
2023/08/12 11:12:54;;;;;;;0.10;0.10;;;32.80;47.50;;;;;;4966196;28;20470;-81
2023/08/12 11:15:31;;;;;;;0.00;0.00;;;32.80;48.60;;;;;;4966168;28;20030;-82
2023/08/12 11:17:57;;;;;;;0.10;0.10;;;32.70;49.10;;;;;;4966628;28;20037;-82
2023/08/12 11:20:23;;;;;;;6.88;0.38;;;32.20;49.80;;;;;;4955857;28;20031;-82
2023/08/12 11:22:50;;;;;;;0.13;0.13;;;32.10;49.00;;;;;;4965941;28;20042;-84
2023/08/12 11:25:15;;;;;;;0.13;0.13;;;32.30;52.90;;;;;;4965935;28;20142;-81
2023/08/12 11:27:46;;;;;;;0.10;0.10;;;32.10;50.60;;;;;;4966687;28;20085;-82
2023/08/12 11:30:15;;;;;;;0.10;0.10;;;31.70;52.80;;;;;;4968601;28;20042;-81
2023/08/12 11:32:46;;;;;;;0.20;0.20;;;31.80;49.80;;;;;;4967105;28;20030;-82
2023/08/12 11:35:13;;;;;;;0.00;0.00;;;31.60;51.10;;;;;;4967359;28;20023;-81
2023/08/12 11:37:41;;;;;;;0.47;0.47;;;31.60;52.30;;;;;;4967500;28;20026;-84
2023/08/12 11:40:09;;;;;;;0.45;0.40;;;31.70;52.40;;;;;;4965515;28;20038;-81
2023/08/12 11:42:36;;;;;;;0.63;0.63;;;31.60;51.40;;;;;;4966796;28;20789;-83
2023/08/12 11:45:02;;;;;;;0.15;0.15;;;31.50;51.20;;;;;;4966901;28;20035;-82
2023/08/12 11:47:28;;;;;;;0.00;0.00;;;31.20;52.50;;;;;;4966125;28;20034;-81
2023/08/12 11:49:54;;;;;;;0.47;0.47;;;31.30;52.50;;;;;;4966755;28;20031;-84
2023/08/12 11:52:20;;;;;;;0.00;0.00;;;31.30;53.30;;;;;;4966410;28;20060;-83
2023/08/12 11:54:46;;;;;;;0.20;0.20;;;31.40;52.70;;;;;;4964930;28;20073;-87
2023/08/12 11:57:12;;;;;;;0.03;0.03;;;31.40;50.70;;;;;;4965953;28;20082;-81
2023/08/12 11:59:37;;;;;;;0.00;0.00;;;31.20;52.60;;;;;;4966335;28;20527;-84
2023/08/12 12:02:04;;;;;;;0.50;0.50;;;31.10;50.50;;;;;;4966218;28;20030;-82
2023/08/12 12:04:32;;;;;;;0.10;0.00;;;30.80;52.50;;;;;;4966640;28;20109;-82
2023/08/12 12:06:59;;;;;;;0.25;0.25;;;30.90;52.90;;;;;;4964426;28;20612;-84
2023/08/12 12:09:26;;;;;;;0.00;0.00;;;30.90;53.70;;;;;;4962597;28;20030;-84
2023/08/12 12:11:55;;;;;;;0.57;0.43;;;30.90;51.30;;;;;;4965944;28;20031;-81
2023/08/12 12:14:21;;;;;;;0.30;0.10;;;30.90;52.20;;;;;;4964828;28;20125;-82
2023/08/12 12:16:47;;;;;;;;;;;30.90;52.40;;;;;;4966597;28;20062;-83
2023/08/12 12:19:17;;;;;;;0.10;0.10;;;30.80;51.60;;;;;;4964880;28;19953;-88
2023/08/12 12:21:49;;;;;;;0.20;0.20;;;30.80;53.30;;;;;;4965657;28;20093;-81
2023/08/12 12:24:15;;;;;;;0.00;0.00;;;30.80;54.30;;;;;;4965915;28;20033;-82
2023/08/12 12:26:41;;;;;;;0.22;0.22;;;30.90;50.70;;;;;;4965280;28;20047;-82
2023/08/12 12:29:07;;;;;;;;;;;30.80;50.70;;;;;;4967277;28;20334;-82
2023/08/12 12:31:34;;;;;;;0.03;0.03;;;30.70;51.20;;;;;;4965736;28;20012;-82
2023/08/12 12:34:06;;;;;;;0.80;0.57;;;30.50;49.10;;;;;;4965879;28;20050;-82
2023/08/12 12:36:36;;;;;;;1.40;0.60;;;30.70;52.50;;;;;;4965673;28;20058;-81
2023/08/12 12:39:03;;;;;;;0.30;0.30;;;30.60;49.60;;;;;;4965487;28;20092;-82
2023/08/12 12:41:30;;;;;;;0.00;0.00;;;30.60;51.50;;;;;;4964285;28;20045;-82
2023/08/12 12:43:55;;;;;;;0.00;0.00;;;30.60;50.10;;;;;;4965886;28;20035;-83
2023/08/12 12:46:21;;;;;;;0.20;0.20;;;30.50;50.80;;;;;;4965921;28;20117;-84
2023/08/12 12:48:47;;;;;;;0.15;0.15;;;30.50;50.30;;;;;;4965896;28;20027;-83